Terminal Aerodrome Forecast
Issued by NWS

Home | Current Version | Previous Version | Text Only | Print | Product List | Glossary On
Versions: 1 2 3 4 5 6 7 8 9 10 11 12 13 14 15 16 17 18 19 20 21 22 23 24 25 26 27 28 29 30 31 32
000
FTUS41 KCAR 181140
TAFFVE
TAF
KFVE 181140Z 1812/1912 01009G15KT 1 1/2SM -SN BR BKN006 OVC012
     FM181500 33015G25KT 2SM -SHSN OVC012
     FM182200 31012G20KT 5SM -SHSN OVC020
     FM190400 30009G16KT P6SM VCSH BKN028=

USA.gov is the U.S. government's official web portal to all federal, state and local government web resources and services.